sensor_id;sensor_type;location;lat;lon;timestamp;pressure;altitude;pressure_sealevel;temperature;humidity
33697;BME280;20031;43.416;23.232;2023-02-21T00:01:26;100280.81;;;6.45;62.55
33697;BME280;20031;43.416;23.232;2023-02-21T00:04:10;100272.91;;;6.47;62.88
33697;BME280;20031;43.416;23.232;2023-02-21T00:06:54;100268.94;;;6.43;62.69
33697;BME280;20031;43.416;23.232;2023-02-21T00:09:38;100261.56;;;6.38;62.85
33697;BME280;20031;43.416;23.232;2023-02-21T00:12:22;100272.50;;;6.42;62.86
33697;BME280;20031;43.416;23.232;2023-02-21T00:15:07;100261.63;;;6.48;62.73
33697;BME280;20031;43.416;23.232;2023-02-21T00:17:51;100258.06;;;6.49;62.79
33697;BME280;20031;43.416;23.232;2023-02-21T00:20:35;100252.09;;;6.48;62.32
33697;BME280;20031;43.416;23.232;2023-02-21T00:23:19;100242.00;;;6.45;62.63
33697;BME280;20031;43.416;23.232;2023-02-21T00:26:03;100247.31;;;6.44;62.64
33697;BME280;20031;43.416;23.232;2023-02-21T00:28:47;100253.41;;;6.43;63.08
33697;BME280;20031;43.416;23.232;2023-02-21T00:31:31;100231.31;;;6.29;63.83
33697;BME280;20031;43.416;23.232;2023-02-21T00:34:15;100245.56;;;6.24;64.40
33697;BME280;20031;43.416;23.232;2023-02-21T00:36:59;100232.28;;;6.17;65.45
33697;BME280;20031;43.416;23.232;2023-02-21T00:39:43;100224.66;;;6.16;65.81
33697;BME280;20031;43.416;23.232;2023-02-21T00:42:26;100225.50;;;6.16;66.19
33697;BME280;20031;43.416;23.232;2023-02-21T00:45:10;100217.38;;;6.21;66.11
33697;BME280;20031;43.416;23.232;2023-02-21T00:47:54;100209.09;;;6.27;65.95
33697;BME280;20031;43.416;23.232;2023-02-21T00:50:38;100196.16;;;6.27;65.46
33697;BME280;20031;43.416;23.232;2023-02-21T00:53:23;100210.03;;;6.26;65.67
33697;BME280;20031;43.416;23.232;2023-02-21T00:56:08;100203.25;;;6.25;65.50
33697;BME280;20031;43.416;23.232;2023-02-21T00:58:52;100201.19;;;6.19;65.77
33697;BME280;20031;43.416;23.232;2023-02-21T01:01:36;100203.75;;;6.19;66.03
33697;BME280;20031;43.416;23.232;2023-02-21T01:04:20;100198.25;;;6.12;65.55
33697;BME280;20031;43.416;23.232;2023-02-21T01:07:03;100198.78;;;6.07;65.98
33697;BME280;20031;43.416;23.232;2023-02-21T01:09:47;100203.63;;;6.00;66.76
33697;BME280;20031;43.416;23.232;2023-02-21T01:12:31;100198.31;;;6.02;67.29
33697;BME280;20031;43.416;23.232;2023-02-21T01:15:15;100195.47;;;6.05;66.97
33697;BME280;20031;43.416;23.232;2023-02-21T01:17:59;100187.84;;;6.03;67.67
33697;BME280;20031;43.416;23.232;2023-02-21T01:20:43;100181.31;;;5.99;67.85
33697;BME280;20031;43.416;23.232;2023-02-21T01:23:27;100180.22;;;6.02;67.74
33697;BME280;20031;43.416;23.232;2023-02-21T01:26:11;100180.81;;;6.05;67.82
33697;BME280;20031;43.416;23.232;2023-02-21T01:28:55;100172.09;;;6.06;67.85
33697;BME280;20031;43.416;23.232;2023-02-21T01:31:40;100169.91;;;6.02;67.45
33697;BME280;20031;43.416;23.232;2023-02-21T01:34:24;100170.84;;;6.01;67.25
33697;BME280;20031;43.416;23.232;2023-02-21T01:37:08;100162.25;;;6.00;67.31
33697;BME280;20031;43.416;23.232;2023-02-21T01:39:52;100164.59;;;6.03;67.38
33697;BME280;20031;43.416;23.232;2023-02-21T01:42:36;100168.81;;;6.04;67.52
33697;BME280;20031;43.416;23.232;2023-02-21T01:48:06;100179.84;;;6.06;67.54
33697;BME280;20031;43.416;23.232;2023-02-21T01:50:51;100172.22;;;6.05;67.42
33697;BME280;20031;43.416;23.232;2023-02-21T01:53:35;100162.47;;;6.08;67.72
33697;BME280;20031;43.416;23.232;2023-02-21T01:56:20;100183.41;;;6.05;67.26
33697;BME280;20031;43.416;23.232;2023-02-21T01:59:04;100175.38;;;6.08;67.67
33697;BME280;20031;43.416;23.232;2023-02-21T02:02:00;100159.28;;;6.05;67.43
33697;BME280;20031;43.416;23.232;2023-02-21T02:04:46;100171.53;;;6.03;67.18
33697;BME280;20031;43.416;23.232;2023-02-21T02:07:33;100166.50;;;6.01;67.51
33697;BME280;20031;43.416;23.232;2023-02-21T02:10:18;100153.97;;;5.97;67.55
33697;BME280;20031;43.416;23.232;2023-02-21T02:18:51;100144.19;;;6.00;67.08
33697;BME280;20031;43.416;23.232;2023-02-21T02:24:33;100130.84;;;5.95;67.31
33697;BME280;20031;43.416;23.232;2023-02-21T02:35:41;100128.59;;;6.11;67.11
33697;BME280;20031;43.416;23.232;2023-02-21T02:41:01;100133.25;;;6.17;66.61
33697;BME280;20031;43.416;23.232;2023-02-21T02:46:03;100118.72;;;6.25;65.87
33697;BME280;20031;43.416;23.232;2023-02-21T02:48:31;100129.50;;;6.30;65.37
33697;BME280;20031;43.416;23.232;2023-02-21T02:50:59;100132.50;;;6.35;65.44
33697;BME280;20031;43.416;23.232;2023-02-21T02:53:28;100125.44;;;6.37;64.92
33697;BME280;20031;43.416;23.232;2023-02-21T02:56:00;100124.06;;;6.33;65.40
33697;BME280;20031;43.416;23.232;2023-02-21T02:58:39;100133.31;;;6.26;65.43
33697;BME280;20031;43.416;23.232;2023-02-21T03:01:44;100132.84;;;6.21;66.14
33697;BME280;20031;43.416;23.232;2023-02-21T03:15:23;100132.09;;;6.01;67.62
33697;BME280;20031;43.416;23.232;2023-02-21T03:18:01;100129.63;;;5.99;68.33
33697;BME280;20031;43.416;23.232;2023-02-21T03:20:30;100122.25;;;5.95;68.59
33697;BME280;20031;43.416;23.232;2023-02-21T03:22:57;100124.00;;;5.94;68.71
33697;BME280;20031;43.416;23.232;2023-02-21T03:25:26;100137.06;;;5.93;69.00
33697;BME280;20031;43.416;23.232;2023-02-21T03:27:54;100136.38;;;5.91;69.54
33697;BME280;20031;43.416;23.232;2023-02-21T03:30:20;100138.13;;;5.90;69.37
33697;BME280;20031;43.416;23.232;2023-02-21T03:32:51;100138.97;;;5.91;69.18
33697;BME280;20031;43.416;23.232;2023-02-21T03:35:18;100139.78;;;5.91;69.31
33697;BME280;20031;43.416;23.232;2023-02-21T03:37:49;100134.59;;;5.91;69.42
33697;BME280;20031;43.416;23.232;2023-02-21T03:42:42;100137.44;;;5.88;69.52
33697;BME280;20031;43.416;23.232;2023-02-21T03:45:08;100139.41;;;5.96;69.43
33697;BME280;20031;43.416;23.232;2023-02-21T03:47:34;100137.81;;;6.04;68.35
33697;BME280;20031;43.416;23.232;2023-02-21T03:50:00;100135.69;;;6.09;68.00
33697;BME280;20031;43.416;23.232;2023-02-21T03:52:26;100129.66;;;6.08;68.11
33697;BME280;20031;43.416;23.232;2023-02-21T03:54:51;100134.53;;;6.02;68.46
33697;BME280;20031;43.416;23.232;2023-02-21T03:57:17;100142.78;;;5.96;69.09
33697;BME280;20031;43.416;23.232;2023-02-21T03:59:42;100144.94;;;5.91;69.59
33697;BME280;20031;43.416;23.232;2023-02-21T04:02:08;100137.19;;;5.91;69.79
33697;BME280;20031;43.416;23.232;2023-02-21T04:04:33;100132.72;;;5.93;69.77
33697;BME280;20031;43.416;23.232;2023-02-21T04:06:59;100140.47;;;5.93;69.51
33697;BME280;20031;43.416;23.232;2023-02-21T04:09:24;100132.72;;;5.93;69.25
33697;BME280;20031;43.416;23.232;2023-02-21T04:11:51;100133.66;;;5.92;69.42
33697;BME280;20031;43.416;23.232;2023-02-21T04:14:16;100127.78;;;5.90;69.39
33697;BME280;20031;43.416;23.232;2023-02-21T04:16:42;100126.84;;;5.91;69.64
33697;BME280;20031;43.416;23.232;2023-02-21T04:19:07;100134.34;;;5.94;69.62
33697;BME280;20031;43.416;23.232;2023-02-21T04:21:33;100123.06;;;5.95;69.75
33697;BME280;20031;43.416;23.232;2023-02-21T04:23:58;100113.53;;;5.96;69.95
33697;BME280;20031;43.416;23.232;2023-02-21T04:26:24;100114.13;;;5.99;70.46
33697;BME280;20031;43.416;23.232;2023-02-21T04:28:50;100108.84;;;6.01;70.37
33697;BME280;20031;43.416;23.232;2023-02-21T04:31:17;100114.03;;;6.10;70.01
33697;BME280;20031;43.416;23.232;2023-02-21T04:33:43;100108.84;;;6.10;69.02
33697;BME280;20031;43.416;23.232;2023-02-21T04:36:09;100106.28;;;6.10;68.94
33697;BME280;20031;43.416;23.232;2023-02-21T04:38:35;100101.09;;;6.10;68.87
33697;BME280;20031;43.416;23.232;2023-02-21T04:41:03;100099.22;;;6.12;68.94
33697;BME280;20031;43.416;23.232;2023-02-21T04:43:29;100104.25;;;6.13;68.75
33697;BME280;20031;43.416;23.232;2023-02-21T04:45:54;100094.34;;;6.18;68.35
33697;BME280;20031;43.416;23.232;2023-02-21T04:48:20;100107.84;;;6.31;67.19
33697;BME280;20031;43.416;23.232;2023-02-21T04:50:45;100094.53;;;6.36;66.87
33697;BME280;20031;43.416;23.232;2023-02-21T04:53:11;100096.31;;;6.35;66.20
33697;BME280;20031;43.416;23.232;2023-02-21T04:55:36;100090.59;;;6.32;66.74
33697;BME280;20031;43.416;23.232;2023-02-21T04:58:02;100100.63;;;6.25;67.18
33697;BME280;20031;43.416;23.232;2023-02-21T05:00:27;100095.19;;;6.19;67.76
33697;BME280;20031;43.416;23.232;2023-02-21T05:02:53;100104.13;;;6.15;67.77
33697;BME280;20031;43.416;23.232;2023-02-21T05:05:18;100094.06;;;6.12;68.31
33697;BME280;20031;43.416;23.232;2023-02-21T05:07:44;100091.47;;;6.12;68.47
33697;BME280;20031;43.416;23.232;2023-02-21T05:10:10;100096.78;;;6.10;68.58
33697;BME280;20031;43.416;23.232;2023-02-21T05:12:36;100098.38;;;6.11;68.98
33697;BME280;20031;43.416;23.232;2023-02-21T05:15:04;100093.34;;;6.10;68.94
33697;BME280;20031;43.416;23.232;2023-02-21T05:17:30;100093.22;;;6.11;69.06
33697;BME280;20031;43.416;23.232;2023-02-21T05:19:56;100088.88;;;6.12;68.94
33697;BME280;20031;43.416;23.232;2023-02-21T05:22:21;100090.38;;;6.14;68.89
33697;BME280;20031;43.416;23.232;2023-02-21T05:24:47;100083.44;;;6.15;69.11
33697;BME280;20031;43.416;23.232;2023-02-21T05:27:18;100081.28;;;6.20;69.07
33697;BME280;20031;43.416;23.232;2023-02-21T05:29:48;100079.94;;;6.25;68.74
33697;BME280;20031;43.416;23.232;2023-02-21T05:32:14;100082.13;;;6.30;68.79
33697;BME280;20031;43.416;23.232;2023-02-21T05:34:40;100080.78;;;6.35;68.42
33697;BME280;20031;43.416;23.232;2023-02-21T05:37:09;100084.63;;;6.41;68.21
33697;BME280;20031;43.416;23.232;2023-02-21T05:39:35;100075.13;;;6.51;68.25
33697;BME280;20031;43.416;23.232;2023-02-21T05:42:00;100089.16;;;6.58;67.93
33697;BME280;20031;43.416;23.232;2023-02-21T05:44:26;100088.75;;;6.62;67.80
33697;BME280;20031;43.416;23.232;2023-02-21T05:46:51;100084.97;;;6.75;67.65
33697;BME280;20031;43.416;23.232;2023-02-21T05:49:17;100090.72;;;6.98;66.67
33697;BME280;20031;43.416;23.232;2023-02-21T05:51:42;100089.22;;;7.23;65.36
33697;BME280;20031;43.416;23.232;2023-02-21T05:54:12;100091.84;;;7.42;64.40
33697;BME280;20031;43.416;23.232;2023-02-21T05:56:39;100085.81;;;7.61;63.66
33697;BME280;20031;43.416;23.232;2023-02-21T05:59:06;100084.41;;;7.75;63.57
33697;BME280;20031;43.416;23.232;2023-02-21T06:01:33;100080.53;;;7.89;62.87
33697;BME280;20031;43.416;23.232;2023-02-21T06:03:58;100085.41;;;8.01;63.29
33697;BME280;20031;43.416;23.232;2023-02-21T06:06:24;100092.25;;;8.02;62.58
33697;BME280;20031;43.416;23.232;2023-02-21T06:08:49;100084.09;;;7.88;63.02
33697;BME280;20031;43.416;23.232;2023-02-21T06:11:22;100082.81;;;8.01;63.08
33697;BME280;20031;43.416;23.232;2023-02-21T06:13:53;100085.91;;;8.23;62.89
33697;BME280;20031;43.416;23.232;2023-02-21T06:16:19;100077.38;;;8.40;61.69
33697;BME280;20031;43.416;23.232;2023-02-21T06:18:49;100072.47;;;8.64;61.13
33697;BME280;20031;43.416;23.232;2023-02-21T06:21:15;100073.81;;;8.85;60.57
33697;BME280;20031;43.416;23.232;2023-02-21T06:23:41;100065.75;;;9.06;59.87
33697;BME280;20031;43.416;23.232;2023-02-21T06:26:06;100058.97;;;9.30;59.02
33697;BME280;20031;43.416;23.232;2023-02-21T06:28:31;100056.34;;;9.47;57.68
33697;BME280;20031;43.416;23.232;2023-02-21T06:30:57;100053.41;;;9.67;57.08
33697;BME280;20031;43.416;23.232;2023-02-21T06:33:23;100061.63;;;9.80;56.22
33697;BME280;20031;43.416;23.232;2023-02-21T06:35:49;100059.03;;;10.06;55.98
33697;BME280;20031;43.416;23.232;2023-02-21T06:38:14;100056.69;;;10.28;55.06
33697;BME280;20031;43.416;23.232;2023-02-21T06:40:40;100054.75;;;10.38;54.05
33697;BME280;20031;43.416;23.232;2023-02-21T06:43:06;100058.97;;;10.31;53.55
33697;BME280;20031;43.416;23.232;2023-02-21T06:45:31;100050.94;;;10.17;53.26
33697;BME280;20031;43.416;23.232;2023-02-21T06:47:56;100049.50;;;10.22;53.57
33697;BME280;20031;43.416;23.232;2023-02-21T06:50:22;100043.66;;;10.28;53.11
33697;BME280;20031;43.416;23.232;2023-02-21T06:52:47;100050.44;;;10.54;52.87
33697;BME280;20031;43.416;23.232;2023-02-21T06:55:18;100056.22;;;10.89;52.55
33697;BME280;20031;43.416;23.232;2023-02-21T06:57:43;100044.22;;;11.12;51.30
33697;BME280;20031;43.416;23.232;2023-02-21T07:00:09;100040.28;;;11.24;50.61
33697;BME280;20031;43.416;23.232;2023-02-21T07:02:34;100035.56;;;11.43;50.34
33697;BME280;20031;43.416;23.232;2023-02-21T07:05:00;100027.59;;;11.61;50.03
33697;BME280;20031;43.416;23.232;2023-02-21T07:07:25;100037.66;;;11.79;49.18
33697;BME280;20031;43.416;23.232;2023-02-21T07:09:51;100033.09;;;11.81;48.97
33697;BME280;20031;43.416;23.232;2023-02-21T07:12:16;100021.13;;;12.03;49.37
33697;BME280;20031;43.416;23.232;2023-02-21T07:14:42;100022.78;;;11.96;48.36
33697;BME280;20031;43.416;23.232;2023-02-21T07:17:07;100025.28;;;11.81;48.53
33697;BME280;20031;43.416;23.232;2023-02-21T07:19:32;100025.44;;;11.64;48.59
33697;BME280;20031;43.416;23.232;2023-02-21T07:21:58;100026.28;;;11.57;48.53
33697;BME280;20031;43.416;23.232;2023-02-21T07:24:23;100004.59;;;11.48;49.08
33697;BME280;20031;43.416;23.232;2023-02-21T07:26:49;100015.34;;;11.45;49.24
33697;BME280;20031;43.416;23.232;2023-02-21T07:29:14;100013.41;;;11.55;49.17
33697;BME280;20031;43.416;23.232;2023-02-21T07:31:41;100014.84;;;11.81;49.27
33697;BME280;20031;43.416;23.232;2023-02-21T07:34:06;100015.06;;;12.40;48.45
33697;BME280;20031;43.416;23.232;2023-02-21T07:36:32;100008.63;;;12.89;47.01
33697;BME280;20031;43.416;23.232;2023-02-21T07:38:58;99995.81;;;13.16;45.94
33697;BME280;20031;43.416;23.232;2023-02-21T07:41:23;99997.97;;;13.49;45.13
33697;BME280;20031;43.416;23.232;2023-02-21T07:43:49;99992.06;;;13.70;44.08
33697;BME280;20031;43.416;23.232;2023-02-21T07:46:15;99996.47;;;13.83;43.59
33697;BME280;20031;43.416;23.232;2023-02-21T07:48:42;99990.59;;;13.96;43.62
33697;BME280;20031;43.416;23.232;2023-02-21T07:51:08;99992.88;;;14.13;43.23
33697;BME280;20031;43.416;23.232;2023-02-21T07:53:34;99992.03;;;14.27;42.37
33697;BME280;20031;43.416;23.232;2023-02-21T07:56:01;99989.41;;;14.27;42.61
33697;BME280;20031;43.416;23.232;2023-02-21T07:58:27;100000.16;;;14.46;42.88
33697;BME280;20031;43.416;23.232;2023-02-21T08:00:52;99982.03;;;14.86;41.72
33697;BME280;20031;43.416;23.232;2023-02-21T08:03:19;99988.19;;;15.41;41.27
33697;BME280;20031;43.416;23.232;2023-02-21T08:05:45;99970.06;;;15.80;40.68
33697;BME280;20031;43.416;23.232;2023-02-21T08:08:11;99977.41;;;16.25;39.52
33697;BME280;20031;43.416;23.232;2023-02-21T08:10:36;99970.25;;;16.72;37.81
33697;BME280;20031;43.416;23.232;2023-02-21T08:13:03;99971.13;;;17.04;36.77
33697;BME280;20031;43.416;23.232;2023-02-21T08:15:29;99980.00;;;17.03;35.69
33697;BME280;20031;43.416;23.232;2023-02-21T08:17:54;99961.41;;;17.11;35.28
33697;BME280;20031;43.416;23.232;2023-02-21T08:20:20;99964.25;;;17.42;34.03
33697;BME280;20031;43.416;23.232;2023-02-21T08:22:45;99967.47;;;17.76;33.69
33697;BME280;20031;43.416;23.232;2023-02-21T08:25:13;99961.88;;;18.10;33.64
33697;BME280;20031;43.416;23.232;2023-02-21T08:27:43;99966.25;;;18.42;33.12
33697;BME280;20031;43.416;23.232;2023-02-21T08:30:11;99969.50;;;18.74;32.26
33697;BME280;20031;43.416;23.232;2023-02-21T08:32:36;99979.38;;;18.85;31.03
33697;BME280;20031;43.416;23.232;2023-02-21T08:35:03;99978.66;;;19.02;31.02
33697;BME280;20031;43.416;23.232;2023-02-21T08:37:31;99980.63;;;19.13;30.88
33697;BME280;20031;43.416;23.232;2023-02-21T08:39:59;99974.28;;;19.45;30.50
33697;BME280;20031;43.416;23.232;2023-02-21T08:42:26;99973.88;;;19.42;29.21
33697;BME280;20031;43.416;23.232;2023-02-21T08:44:52;99976.44;;;19.30;29.49
33697;BME280;20031;43.416;23.232;2023-02-21T08:47:17;99978.31;;;19.23;29.57
33697;BME280;20031;43.416;23.232;2023-02-21T08:49:44;99975.88;;;19.22;29.92
33697;BME280;20031;43.416;23.232;2023-02-21T08:52:11;99966.03;;;19.35;27.63
33697;BME280;20031;43.416;23.232;2023-02-21T08:54:37;99957.91;;;19.97;25.40
33697;BME280;20031;43.416;23.232;2023-02-21T08:57:03;99953.41;;;20.62;24.40
33697;BME280;20031;43.416;23.232;2023-02-21T08:59:28;99950.34;;;21.05;23.48
33697;BME280;20031;43.416;23.232;2023-02-21T09:01:59;99945.09;;;21.40;22.66
33697;BME280;20031;43.416;23.232;2023-02-21T09:04:25;99970.81;;;21.51;22.21
33697;BME280;20031;43.416;23.232;2023-02-21T09:06:52;99961.94;;;21.68;22.25
33697;BME280;20031;43.416;23.232;2023-02-21T09:09:18;99948.34;;;21.76;22.09
33697;BME280;20031;43.416;23.232;2023-02-21T09:11:45;99947.16;;;21.83;21.99
33697;BME280;20031;43.416;23.232;2023-02-21T09:14:13;99943.06;;;22.15;21.92
33697;BME280;20031;43.416;23.232;2023-02-21T09:16:39;99935.34;;;22.13;21.61
33697;BME280;20031;43.416;23.232;2023-02-21T09:19:04;99943.25;;;22.36;21.75
33697;BME280;20031;43.416;23.232;2023-02-21T09:21:32;99950.47;;;22.52;21.83
33697;BME280;20031;43.416;23.232;2023-02-21T09:23:57;99940.94;;;22.40;21.30
33697;BME280;20031;43.416;23.232;2023-02-21T09:26:24;99942.06;;;22.04;21.46
33697;BME280;20031;43.416;23.232;2023-02-21T09:28:50;99929.81;;;22.03;21.18
33697;BME280;20031;43.416;23.232;2023-02-21T09:31:16;99948.59;;;22.13;21.46
33697;BME280;20031;43.416;23.232;2023-02-21T09:33:43;99938.41;;;22.33;21.44
33697;BME280;20031;43.416;23.232;2023-02-21T09:36:10;99932.81;;;22.46;21.44
33697;BME280;20031;43.416;23.232;2023-02-21T09:38:36;99939.19;;;22.45;21.35
33697;BME280;20031;43.416;23.232;2023-02-21T09:41:05;99926.78;;;22.62;21.47
33697;BME280;20031;43.416;23.232;2023-02-21T09:43:32;99934.69;;;22.90;21.45
33697;BME280;20031;43.416;23.232;2023-02-21T09:46:02;99926.00;;;22.94;20.39
33697;BME280;20031;43.416;23.232;2023-02-21T09:48:28;99929.09;;;22.58;20.62
33697;BME280;20031;43.416;23.232;2023-02-21T09:51:03;99916.88;;;22.74;21.01
33697;BME280;20031;43.416;23.232;2023-02-21T09:53:36;99918.84;;;22.95;20.56
33697;BME280;20031;43.416;23.232;2023-02-21T09:56:30;99928.84;;;23.04;21.04
33697;BME280;20031;43.416;23.232;2023-02-21T09:58:58;99917.00;;;23.11;21.03
33697;BME280;20031;43.416;23.232;2023-02-21T10:06:46;99908.59;;;22.87;20.37
33697;BME280;20031;43.416;23.232;2023-02-21T10:17:24;99902.28;;;23.20;19.84
33697;BME280;20031;43.416;23.232;2023-02-21T10:19:59;99889.22;;;23.19;19.33
33697;BME280;20031;43.416;23.232;2023-02-21T10:22:30;99877.69;;;23.30;19.96
33697;BME280;20031;43.416;23.232;2023-02-21T10:24:57;99884.03;;;23.45;19.97
33697;BME280;20031;43.416;23.232;2023-02-21T10:27:25;99881.47;;;23.34;19.56
33697;BME280;20031;43.416;23.232;2023-02-21T10:30:03;99868.78;;;23.57;19.79
33697;BME280;20031;43.416;23.232;2023-02-21T10:32:30;99860.13;;;23.66;19.73
33697;BME280;20031;43.416;23.232;2023-02-21T10:34:56;99847.66;;;23.67;19.51
33697;BME280;20031;43.416;23.232;2023-02-21T10:42:53;99862.56;;;23.68;19.57
33697;BME280;20031;43.416;23.232;2023-02-21T10:45:29;99841.59;;;23.71;19.96
33697;BME280;20031;43.416;23.232;2023-02-21T10:48:06;99841.16;;;23.79;19.85
33697;BME280;20031;43.416;23.232;2023-02-21T10:50:47;99862.78;;;23.88;19.35
33697;BME280;20031;43.416;23.232;2023-02-21T10:53:26;99843.75;;;23.96;19.46
33697;BME280;20031;43.416;23.232;2023-02-21T10:56:18;99838.00;;;24.04;19.14
33697;BME280;20031;43.416;23.232;2023-02-21T11:03:58;99832.06;;;23.00;19.71
33697;BME280;20031;43.416;23.232;2023-02-21T11:08:57;99835.50;;;22.84;20.62
33697;BME280;20031;43.416;23.232;2023-02-21T11:16:35;99816.44;;;23.04;19.70
33697;BME280;20031;43.416;23.232;2023-02-21T11:19:05;99811.56;;;23.17;20.20
33697;BME280;20031;43.416;23.232;2023-02-21T11:21:31;99805.72;;;23.36;20.08
33697;BME280;20031;43.416;23.232;2023-02-21T11:24:03;99817.16;;;23.58;20.71
33697;BME280;20031;43.416;23.232;2023-02-21T11:26:43;99804.50;;;23.65;20.22
33697;BME280;20031;43.416;23.232;2023-02-21T11:29:13;99803.53;;;23.71;19.96
33697;BME280;20031;43.416;23.232;2023-02-21T11:31:39;99802.97;;;23.69;19.58
33697;BME280;20031;43.416;23.232;2023-02-21T11:34:08;99815.75;;;23.67;19.74
33697;BME280;20031;43.416;23.232;2023-02-21T11:36:36;99806.00;;;23.56;19.72
33697;BME280;20031;43.416;23.232;2023-02-21T11:41:51;99784.34;;;23.48;19.98
33697;BME280;20031;43.416;23.232;2023-02-21T11:44:30;99782.47;;;23.48;19.58
33697;BME280;20031;43.416;23.232;2023-02-21T11:47:20;99774.44;;;23.43;19.92
33697;BME280;20031;43.416;23.232;2023-02-21T11:52:39;99775.72;;;23.19;19.66
33697;BME280;20031;43.416;23.232;2023-02-21T11:55:18;99789.03;;;23.19;20.37
33697;BME280;20031;43.416;23.232;2023-02-21T12:03:09;99757.19;;;23.03;20.38
33697;BME280;20031;43.416;23.232;2023-02-21T12:08:29;99765.31;;;22.97;20.37
33697;BME280;20031;43.416;23.232;2023-02-21T12:22:15;99760.25;;;22.46;20.85
33697;BME280;20031;43.416;23.232;2023-02-21T12:30:35;99737.84;;;21.93;21.20
33697;BME280;20031;43.416;23.232;2023-02-21T12:46:26;99752.66;;;21.27;22.95
33697;BME280;20031;43.416;23.232;2023-02-21T12:51:40;99739.69;;;21.14;22.88
33697;BME280;20031;43.416;23.232;2023-02-21T12:54:19;99739.59;;;21.09;22.67
33697;BME280;20031;43.416;23.232;2023-02-21T12:56:58;99744.91;;;21.09;22.58
33697;BME280;20031;43.416;23.232;2023-02-21T12:59:41;99739.22;;;21.17;23.22
33697;BME280;20031;43.416;23.232;2023-02-21T13:05:02;99726.97;;;21.51;23.21
33697;BME280;20031;43.416;23.232;2023-02-21T13:07:51;99725.53;;;21.59;22.94
33697;BME280;20031;43.416;23.232;2023-02-21T13:10:22;99738.91;;;21.64;22.59
33697;BME280;20031;43.416;23.232;2023-02-21T13:13:07;99716.25;;;21.73;22.68
33697;BME280;20031;43.416;23.232;2023-02-21T13:15:34;99713.38;;;21.75;22.92
33697;BME280;20031;43.416;23.232;2023-02-21T13:18:07;99715.66;;;21.83;22.75
33697;BME280;20031;43.416;23.232;2023-02-21T13:20:37;99723.66;;;21.88;22.04
33697;BME280;20031;43.416;23.232;2023-02-21T13:26:14;99714.19;;;21.92;21.86
33697;BME280;20031;43.416;23.232;2023-02-21T13:28:43;99724.81;;;21.92;22.11
33697;BME280;20031;43.416;23.232;2023-02-21T13:31:37;99715.47;;;21.89;22.28
33697;BME280;20031;43.416;23.232;2023-02-21T13:34:08;99718.53;;;21.98;22.43
33697;BME280;20031;43.416;23.232;2023-02-21T13:39:32;99714.75;;;21.94;22.25
33697;BME280;20031;43.416;23.232;2023-02-21T13:42:05;99705.03;;;21.83;22.30
33697;BME280;20031;43.416;23.232;2023-02-21T13:44:39;99708.53;;;21.72;22.24
33697;BME280;20031;43.416;23.232;2023-02-21T13:47:14;99709.03;;;21.69;23.13
33697;BME280;20031;43.416;23.232;2023-02-21T13:49:52;99718.91;;;21.73;22.66
33697;BME280;20031;43.416;23.232;2023-02-21T14:03:03;99707.75;;;21.71;22.56
33697;BME280;20031;43.416;23.232;2023-02-21T14:08:18;99691.50;;;21.68;22.86
33697;BME280;20031;43.416;23.232;2023-02-21T14:10:50;99700.25;;;21.68;22.74
33697;BME280;20031;43.416;23.232;2023-02-21T14:15:54;99694.81;;;21.75;22.89
33697;BME280;20031;43.416;23.232;2023-02-21T14:18:25;99702.81;;;21.63;23.06
33697;BME280;20031;43.416;23.232;2023-02-21T14:20:53;99703.53;;;21.59;23.35
33697;BME280;20031;43.416;23.232;2023-02-21T14:23:23;99706.03;;;21.65;23.59
33697;BME280;20031;43.416;23.232;2023-02-21T14:25:57;99706.44;;;21.74;23.25
33697;BME280;20031;43.416;23.232;2023-02-21T14:28:49;99712.88;;;21.78;22.87
33697;BME280;20031;43.416;23.232;2023-02-21T14:31:45;99702.16;;;21.84;22.52
33697;BME280;20031;43.416;23.232;2023-02-21T14:34:12;99699.91;;;21.93;22.75
33697;BME280;20031;43.416;23.232;2023-02-21T14:36:38;99711.75;;;21.74;22.98
33697;BME280;20031;43.416;23.232;2023-02-21T14:39:06;99695.38;;;21.49;23.12
33697;BME280;20031;43.416;23.232;2023-02-21T14:49:59;99702.09;;;21.40;23.24
33697;BME280;20031;43.416;23.232;2023-02-21T14:55:21;99714.75;;;21.50;23.10
33697;BME280;20031;43.416;23.232;2023-02-21T15:00:40;99707.81;;;21.49;23.34
33697;BME280;20031;43.416;23.232;2023-02-21T15:03:17;99707.38;;;21.52;23.28
33697;BME280;20031;43.416;23.232;2023-02-21T15:06:11;99716.34;;;21.51;23.04
33697;BME280;20031;43.416;23.232;2023-02-21T15:08:51;99712.34;;;21.37;23.71
33697;BME280;20031;43.416;23.232;2023-02-21T15:14:12;99721.38;;;21.13;23.71
33697;BME280;20031;43.416;23.232;2023-02-21T15:16:42;99721.16;;;21.03;23.96
33697;BME280;20031;43.416;23.232;2023-02-21T15:19:18;99723.84;;;20.92;24.37
33697;BME280;20031;43.416;23.232;2023-02-21T15:21:44;99714.09;;;20.81;24.27
33697;BME280;20031;43.416;23.232;2023-02-21T15:24:15;99716.50;;;20.71;24.43
33697;BME280;20031;43.416;23.232;2023-02-21T15:26:40;99717.28;;;20.60;24.91
33697;BME280;20031;43.416;23.232;2023-02-21T15:29:10;99722.56;;;20.48;25.11
33697;BME280;20031;43.416;23.232;2023-02-21T15:31:49;99725.19;;;20.37;25.29
33697;BME280;20031;43.416;23.232;2023-02-21T15:34:17;99724.81;;;20.22;25.48
33697;BME280;20031;43.416;23.232;2023-02-21T15:36:51;99722.38;;;20.09;25.97
33697;BME280;20031;43.416;23.232;2023-02-21T15:41:47;99718.44;;;19.89;26.38
33697;BME280;20031;43.416;23.232;2023-02-21T15:44:21;99725.69;;;19.76;26.29
33697;BME280;20031;43.416;23.232;2023-02-21T15:46:55;99725.31;;;19.61;26.68
33697;BME280;20031;43.416;23.232;2023-02-21T15:49:27;99729.59;;;19.44;27.17
33697;BME280;20031;43.416;23.232;2023-02-21T15:51:53;99728.16;;;19.30;26.99
33697;BME280;20031;43.416;23.232;2023-02-21T15:56:44;99737.69;;;18.95;27.72